Time;durP1;ratioP1;P1;durP2;ratioP2;P2;SDS_P1;SDS_P2;PMS_P1;PMS_P2;Temp;Humidity;BMP_temperature;BMP_pressure;BME280_temperature;BME280_humidity;BME280_pressure;Samples;Min_cycle;Max_cycle;Signal;HPM_P1;HPM_P2
2023/01/19 00:01:32;;;;;;;;;;;;;;;-1.06;100.00;100001.38;10501329;28;19928;-79
2023/01/19 00:06:32;;;;;;;;;;;;;;;-1.08;100.00;100002.00;10501063;28;19920;-79
2023/01/19 00:11:33;;;;;;;;;;;;;;;-1.11;100.00;100017.16;10480909;28;19920;-78
2023/01/19 00:16:33;;;;;;;;;;;;;;;-1.05;100.00;100007.38;10514526;28;20019;-78
2023/01/19 00:21:33;;;;;;;;;;;;;;;-1.01;100.00;100001.72;10483457;28;19927;-79
2023/01/19 00:26:34;;;;;;;;;;;;;;;-1.06;100.00;100000.44;10478791;28;19926;-78
2023/01/19 00:31:34;;;;;;;;;;;;;;;-1.01;100.00;100011.13;10520030;28;19930;-78
2023/01/19 00:36:34;;;;;;;;;;;;;;;-0.95;100.00;100004.78;10503880;28;19922;-78
2023/01/19 00:46:54;;;;;;;;;;;;;;;-0.69;100.00;100011.06;10500047;28;19924;-78
2023/01/19 00:51:54;;;;;;;;;;;;;;;-0.64;100.00;100003.75;10509594;28;19924;-79
2023/01/19 00:56:54;;;;;;;;;;;;;;;-0.57;100.00;100005.09;10500500;28;19927;-78
2023/01/19 01:01:55;;;;;;;;;;;;;;;-0.57;100.00;99999.97;10463907;28;20019;-78
2023/01/19 01:06:55;;;;;;;;;;;;;;;-0.58;100.00;100009.38;10481232;28;19927;-79
2023/01/19 01:11:55;;;;;;;;;;;;;;;-0.71;100.00;100010.06;10492368;28;19920;-79
2023/01/19 01:16:56;;;;;;;;;;;;;;;-0.83;100.00;100011.66;10481996;28;19920;-78
2023/01/19 01:21:56;;;;;;;;;;;;;;;-0.77;100.00;100022.44;10490618;28;19928;-80
2023/01/19 01:26:57;;;;;;;;;;;;;;;-0.63;100.00;100026.09;10479675;28;19920;-79
2023/01/19 01:31:57;;;;;;;;;;;;;;;-0.65;100.00;100019.94;10484568;28;19970;-80
2023/01/19 01:36:57;;;;;;;;;;;;;;;-0.70;100.00;100019.56;10508420;28;19921;-79
2023/01/19 01:41:58;;;;;;;;;;;;;;;-0.64;100.00;100017.47;10494408;28;19913;-79
2023/01/19 01:46:58;;;;;;;;;;;;;;;-0.74;100.00;100020.09;10504339;28;20652;-79
2023/01/19 01:51:59;;;;;;;;;;;;;;;-0.78;100.00;100005.22;10506645;28;20015;-80
2023/01/19 01:57:00;;;;;;;;;;;;;;;-0.92;100.00;99999.00;10491256;28;19924;-79
2023/01/19 02:18:22;;;;;;;;;;;;;;;-0.80;100.00;100010.25;10471978;28;19921;-78
2023/01/19 02:23:30;;;;;;;;;;;;;;;-0.72;100.00;100013.41;10463354;28;19923;-80
2023/01/19 02:28:31;;;;;;;;;;;;;;;-0.48;100.00;100022.16;10471504;28;19920;-79
2023/01/19 02:33:31;;;;;;;;;;;;;;;-0.39;100.00;100011.69;10479746;28;19921;-79
2023/01/19 02:38:31;;;;;;;;;;;;;;;-0.31;100.00;100015.75;10455238;28;19928;-79
2023/01/19 02:43:32;;;;;;;;;;;;;;;-0.33;100.00;100012.16;10468809;28;19963;-78
2023/01/19 02:48:32;;;;;;;;;;;;;;;-0.35;100.00;100016.28;10448109;28;19920;-78
2023/01/19 02:53:42;;;;;;;;;;;;;;;-0.34;100.00;100028.38;10445021;28;19921;-78
2023/01/19 02:58:50;;;;;;;;;;;;;;;-0.18;100.00;100024.41;10458709;28;19928;-79
2023/01/19 03:03:58;;;;;;;;;;;;;;;-0.20;100.00;100018.25;10481887;28;19920;-79
2023/01/19 03:09:03;;;;;;;;;;;;;;;-0.16;100.00;100023.75;10446112;28;19920;-78
2023/01/19 03:14:07;;;;;;;;;;;;;;;-0.16;100.00;100038.28;10481631;28;19932;-78
2023/01/19 03:19:19;;;;;;;;;;;;;;;-0.17;100.00;100033.91;10474474;28;19924;-78
2023/01/19 03:24:19;;;;;;;;;;;;;;;-0.13;100.00;100042.78;10482285;28;20012;-78
2023/01/19 03:29:19;;;;;;;;;;;;;;;-0.12;100.00;100036.84;10450990;28;19928;-78
2023/01/19 03:34:22;;;;;;;;;;;;;;;-0.12;100.00;100037.72;10472088;28;19974;-78
2023/01/19 03:39:23;;;;;;;;;;;;;;;-0.22;100.00;100040.38;10439432;28;19947;-78
2023/01/19 03:44:24;;;;;;;;;;;;;;;-0.27;100.00;100046.84;10458385;28;19956;-80
2023/01/19 03:49:25;;;;;;;;;;;;;;;-0.43;100.00;100048.22;10453294;28;20007;-80
2023/01/19 03:54:25;;;;;;;;;;;;;;;-0.52;100.00;100052.63;10464485;28;19921;-80
2023/01/19 03:59:26;;;;;;;;;;;;;;;-0.54;100.00;100059.31;10459954;28;20075;-80
2023/01/19 04:04:26;;;;;;;;;;;;;;;-0.61;100.00;100071.69;10450700;28;20360;-80
2023/01/19 04:09:26;;;;;;;;;;;;;;;-0.67;100.00;100073.78;10468483;28;20456;-80
2023/01/19 04:14:27;;;;;;;;;;;;;;;-0.87;100.00;100077.34;10439619;28;19924;-80
2023/01/19 04:19:27;;;;;;;;;;;;;;;-1.13;100.00;100075.22;10459779;28;19920;-80
2023/01/19 04:24:28;;;;;;;;;;;;;;;-1.26;100.00;100081.91;10452823;28;20376;-80
2023/01/19 04:29:28;;;;;;;;;;;;;;;-1.30;100.00;100089.25;10453336;28;19928;-85
2023/01/19 04:34:29;;;;;;;;;;;;;;;-1.37;100.00;100092.97;10471477;28;19928;-83
2023/01/19 04:39:29;;;;;;;;;;;;;;;-1.44;100.00;100101.84;10475056;28;19925;-81
2023/01/19 04:44:29;;;;;;;;;;;;;;;-1.44;100.00;100106.06;10455433;28;20364;-79
2023/01/19 04:49:30;;;;;;;;;;;;;;;-1.51;100.00;100103.00;10454814;28;20067;-79
2023/01/19 04:54:30;;;;;;;;;;;;;;;-1.48;100.00;100104.94;10463048;28;20058;-78
2023/01/19 04:59:30;;;;;;;;;;;;;;;-1.49;100.00;100109.16;10460405;28;19920;-79
2023/01/19 05:04:31;;;;;;;;;;;;;;;-1.51;100.00;100120.97;10477910;28;19924;-79
2023/01/19 05:09:31;;;;;;;;;;;;;;;-1.54;100.00;100135.22;10466316;28;20349;-79
2023/01/19 05:14:32;;;;;;;;;;;;;;;-1.54;100.00;100141.25;10464679;28;20388;-78
2023/01/19 05:19:32;;;;;;;;;;;;;;;-1.54;100.00;100140.34;10451460;28;20090;-80
2023/01/19 05:24:32;;;;;;;;;;;;;;;-1.53;100.00;100153.31;10463754;28;19924;-79
2023/01/19 05:29:33;;;;;;;;;;;;;;;-1.51;100.00;100156.91;10456091;28;20288;-78
2023/01/19 05:34:33;;;;;;;;;;;;;;;-1.52;100.00;100159.34;10455986;28;19921;-78
2023/01/19 05:39:33;;;;;;;;;;;;;;;-1.52;100.00;100155.09;10454614;28;19920;-78
2023/01/19 05:44:34;;;;;;;;;;;;;;;-1.48;100.00;100146.88;10487068;28;19926;-78
2023/01/19 05:49:34;;;;;;;;;;;;;;;-1.50;100.00;100145.84;10481209;28;19920;-78
2023/01/19 05:54:35;;;;;;;;;;;;;;;-1.44;100.00;100134.31;10452740;28;19927;-77
2023/01/19 05:59:35;;;;;;;;;;;;;;;-1.35;100.00;100118.03;10453694;28;20058;-77
2023/01/19 06:04:35;;;;;;;;;;;;;;;-1.34;100.00;100121.47;10485359;28;20485;-77
2023/01/19 06:09:36;;;;;;;;;;;;;;;-1.38;100.00;100098.88;10479041;28;20018;-79
2023/01/19 06:14:37;;;;;;;;;;;;;;;-1.35;100.00;100109.41;10484865;28;19924;-79
2023/01/19 06:19:37;;;;;;;;;;;;;;;-1.40;100.00;100144.06;10462875;28;20358;-78
2023/01/19 06:24:37;;;;;;;;;;;;;;;-1.37;100.00;100126.34;10458808;28;19970;-77
2023/01/19 06:29:38;;;;;;;;;;;;;;;-1.36;100.00;100162.44;10467184;28;20398;-79
2023/01/19 06:34:42;;;;;;;;;;;;;;;-1.33;100.00;100159.22;10480230;28;19924;-78
2023/01/19 06:39:44;;;;;;;;;;;;;;;-1.37;100.00;100170.00;10500040;28;20011;-78
2023/01/19 06:44:46;;;;;;;;;;;;;;;-1.34;100.00;100180.50;10490357;28;19928;-77
2023/01/19 06:49:47;;;;;;;;;;;;;;;-1.36;100.00;100175.28;10480380;28;20344;-77
2023/01/19 06:54:48;;;;;;;;;;;;;;;-1.38;100.00;100193.88;10510038;28;19921;-78
2023/01/19 06:59:48;;;;;;;;;;;;;;;-1.36;100.00;100182.97;10508708;28;19919;-78
2023/01/19 07:04:48;;;;;;;;;;;;;;;-1.39;100.00;100194.63;10478894;28;19926;-78
2023/01/19 07:09:49;;;;;;;;;;;;;;;-1.34;100.00;100199.41;10481670;28;19973;-77
2023/01/19 07:14:49;;;;;;;;;;;;;;;-1.33;100.00;100213.13;10488443;28;19924;-78
2023/01/19 07:19:50;;;;;;;;;;;;;;;-1.31;100.00;100233.81;10464160;28;20375;-79
2023/01/19 07:24:50;;;;;;;;;;;;;;;-1.28;100.00;100244.34;10501707;28;19928;-78
2023/01/19 07:29:50;;;;;;;;;;;;;;;-1.24;100.00;100244.72;10469714;28;20015;-79
2023/01/19 07:34:51;;;;;;;;;;;;;;;-1.21;100.00;100242.41;10465316;28;19920;-79
2023/01/19 07:39:51;;;;;;;;;;;;;;;-1.19;100.00;100246.00;10504356;28;20346;-80
2023/01/19 07:44:51;;;;;;;;;;;;;;;-1.25;100.00;100235.22;10511951;28;19923;-80
2023/01/19 07:49:52;;;;;;;;;;;;;;;-1.22;100.00;100258.59;10510500;28;20373;-79
2023/01/19 07:54:52;;;;;;;;;;;;;;;-1.22;100.00;100262.84;10506251;28;19926;-80
2023/01/19 07:59:52;;;;;;;;;;;;;;;-1.21;100.00;100264.63;10489210;28;19958;-80
2023/01/19 08:04:53;;;;;;;;;;;;;;;-1.11;100.00;100268.88;10499729;28;19935;-79
2023/01/19 08:09:53;;;;;;;;;;;;;;;-1.06;100.00;100283.91;10470199;28;19924;-80
2023/01/19 08:14:53;;;;;;;;;;;;;;;-1.05;100.00;100287.38;10477558;28;19927;-80
2023/01/19 08:19:54;;;;;;;;;;;;;;;-1.07;100.00;100294.97;10500003;28;19924;-82
2023/01/19 08:24:54;;;;;;;;;;;;;;;-1.03;100.00;100293.53;10518865;28;19920;-82
2023/01/19 08:29:54;;;;;;;;;;;;;;;-1.01;100.00;100299.69;10514977;28;19959;-81
2023/01/19 08:34:55;;;;;;;;;;;;;;;-1.00;100.00;100301.50;10488334;28;20024;-80
2023/01/19 08:39:55;;;;;;;;;;;;;;;-0.98;100.00;100299.94;10484899;28;20016;-80
2023/01/19 08:44:56;;;;;;;;;;;;;;;-0.94;100.00;100311.41;10497671;28;19920;-80
2023/01/19 08:49:56;;;;;;;;;;;;;;;-0.92;100.00;100315.88;10480831;28;19946;-86
2023/01/19 08:54:56;;;;;;;;;;;;;;;-0.84;100.00;100328.47;10484966;28;20107;-83
2023/01/19 08:59:57;;;;;;;;;;;;;;;-0.77;100.00;100335.94;10483094;28;19935;-82
2023/01/19 09:04:57;;;;;;;;;;;;;;;-0.67;100.00;100343.66;10492359;28;19969;-83
2023/01/19 09:09:58;;;;;;;;;;;;;;;-0.63;100.00;100357.69;10528503;28;19920;-83
2023/01/19 09:14:59;;;;;;;;;;;;;;;-0.63;100.00;100360.25;10528692;28;19943;-83
2023/01/19 09:20:00;;;;;;;;;;;;;;;-0.51;100.00;100360.38;10527725;28;19942;-81
2023/01/19 09:25:00;;;;;;;;;;;;;;;-0.49;100.00;100364.88;10490260;28;19922;-80
2023/01/19 09:30:01;;;;;;;;;;;;;;;-0.23;100.00;100376.44;10508971;28;19920;-78
2023/01/19 09:35:01;;;;;;;;;;;;;;;-0.33;100.00;100373.88;10528167;28;20549;-78
2023/01/19 09:40:02;;;;;;;;;;;;;;;-0.33;100.00;100368.72;10511840;28;19924;-79
2023/01/19 09:45:06;;;;;;;;;;;;;;;-0.28;100.00;100377.72;10527033;28;19955;-79
2023/01/19 09:50:18;;;;;;;;;;;;;;;-0.23;100.00;100391.88;10501537;28;19924;-79
2023/01/19 09:55:24;;;;;;;;;;;;;;;0.01;100.00;100393.75;10469054;28;19920;-82
2023/01/19 10:00:26;;;;;;;;;;;;;;;0.16;100.00;100404.41;10467374;28;19917;-81
2023/01/19 10:05:30;;;;;;;;;;;;;;;0.25;100.00;100406.03;10467714;28;19924;-80
2023/01/19 10:10:31;;;;;;;;;;;;;;;0.24;100.00;100409.41;10467536;28;20009;-82
2023/01/19 10:15:46;;;;;;;;;;;;;;;0.33;100.00;100408.34;10477323;28;20015;-82
2023/01/19 10:20:55;;;;;;;;;;;;;;;0.23;100.00;100406.72;10492300;28;20386;-85
2023/01/19 10:25:55;;;;;;;;;;;;;;;0.09;100.00;100415.88;10467581;28;19923;-85
2023/01/19 10:30:55;;;;;;;;;;;;;;;-0.01;100.00;100429.66;10483998;28;19943;-86
2023/01/19 10:35:56;;;;;;;;;;;;;;;0.05;100.00;100440.47;10488080;28;20431;-87
2023/01/19 10:40:57;;;;;;;;;;;;;;;0.11;100.00;100438.41;10488890;28;19920;-85
2023/01/19 10:45:57;;;;;;;;;;;;;;;0.36;100.00;100432.69;10465369;28;20030;-85
2023/01/19 10:51:01;;;;;;;;;;;;;;;0.74;100.00;100423.66;10466557;28;19923;-86
2023/01/19 10:56:13;;;;;;;;;;;;;;;1.26;100.00;100419.16;10473011;28;19927;-86
2023/01/19 11:01:15;;;;;;;;;;;;;;;1.59;100.00;100407.03;10508979;28;19916;-86
2023/01/19 11:06:19;;;;;;;;;;;;;;;1.40;100.00;100404.72;10491252;28;19920;-84
2023/01/19 11:11:20;;;;;;;;;;;;;;;1.25;100.00;100406.13;10505411;28;19923;-84
2023/01/19 11:16:27;;;;;;;;;;;;;;;1.86;100.00;100401.25;10501875;28;19927;-82
2023/01/19 11:21:28;;;;;;;;;;;;;;;1.45;100.00;100398.22;10491641;28;19924;-81
2023/01/19 11:26:30;;;;;;;;;;;;;;;0.88;100.00;100407.63;10496492;28;19924;-82
2023/01/19 11:31:31;;;;;;;;;;;;;;;1.41;100.00;100413.38;10481560;28;19965;-89
2023/01/19 11:36:33;;;;;;;;;;;;;;;1.82;100.00;100418.22;10469606;28;20340;-83
2023/01/19 11:41:34;;;;;;;;;;;;;;;3.03;100.00;100403.69;10505782;28;20007;-83
2023/01/19 11:46:34;;;;;;;;;;;;;;;2.37;100.00;100389.53;10492975;28;19931;-83
2023/01/19 11:51:38;;;;;;;;;;;;;;;2.37;100.00;100397.28;10494460;28;19927;-82
2023/01/19 11:56:38;;;;;;;;;;;;;;;2.85;100.00;100400.66;10461433;28;19920;-82
2023/01/19 12:01:39;;;;;;;;;;;;;;;3.18;100.00;100397.78;10464388;28;19923;-82
2023/01/19 12:06:43;;;;;;;;;;;;;;;2.17;100.00;100395.78;10464295;28;19924;-82
2023/01/19 12:11:45;;;;;;;;;;;;;;;1.64;100.00;100403.91;10464881;28;19924;-82
2023/01/19 12:16:45;;;;;;;;;;;;;;;1.88;100.00;100416.09;10464537;28;20280;-81
2023/01/19 12:21:47;;;;;;;;;;;;;;;3.07;100.00;100394.44;10463374;28;19920;-80
2023/01/19 12:26:55;;;;;;;;;;;;;;;3.64;100.00;100387.09;10481942;28;20275;-81
2023/01/19 12:32:10;;;;;;;;;;;;;;;4.51;100.00;100370.34;10462380;28;19931;-80
2023/01/19 12:37:29;;;;;;;;;;;;;;;3.91;100.00;100382.88;10481427;28;19920;-81
2023/01/19 12:42:29;;;;;;;;;;;;;;;2.73;100.00;100386.88;10505867;28;19921;-80
2023/01/19 12:47:30;;;;;;;;;;;;;;;1.95;100.00;100404.53;10446144;28;19921;-81
2023/01/19 12:52:33;;;;;;;;;;;;;;;1.55;100.00;100410.16;10479636;28;19985;-81
2023/01/19 12:57:35;;;;;;;;;;;;;;;1.48;100.00;100417.31;10521356;28;19923;-81
2023/01/19 13:02:45;;;;;;;;;;;;;;;1.64;100.00;100419.41;10511199;28;19916;-80
2023/01/19 13:08:00;;;;;;;;;;;;;;;1.45;100.00;100423.13;10512072;28;19912;-80
2023/01/19 13:13:08;;;;;;;;;;;;;;;1.23;100.00;100413.75;10529195;28;19920;-80
2023/01/19 13:18:08;;;;;;;;;;;;;;;1.21;100.00;100424.69;10511903;28;20382;-79
2023/01/19 13:23:08;;;;;;;;;;;;;;;1.20;100.00;100420.31;10472319;28;20022;-79
2023/01/19 13:28:09;;;;;;;;;;;;;;;1.25;100.00;100424.16;10491422;28;19944;-80
2023/01/19 13:33:13;;;;;;;;;;;;;;;1.42;100.00;100425.47;10458094;28;20284;-81
2023/01/19 13:38:13;;;;;;;;;;;;;;;2.12;100.00;100421.28;10474738;28;19967;-80
2023/01/19 13:43:15;;;;;;;;;;;;;;;1.92;100.00;100427.53;10501315;28;20043;-79
2023/01/19 13:48:16;;;;;;;;;;;;;;;1.23;100.00;100426.63;10474598;28;19926;-80
2023/01/19 13:53:17;;;;;;;;;;;;;;;0.91;100.00;100436.97;10506660;28;19939;-78
2023/01/19 13:58:22;;;;;;;;;;;;;;;0.72;100.00;100448.38;10497936;28;19915;-79
2023/01/19 14:03:22;;;;;;;;;;;;;;;0.77;100.00;100448.78;10474023;28;19916;-80
2023/01/19 14:08:24;;;;;;;;;;;;;;;0.87;100.00;100446.16;10484556;28;19917;-80
2023/01/19 14:13:25;;;;;;;;;;;;;;;0.62;100.00;100443.28;10483939;28;20443;-80
2023/01/19 14:18:27;;;;;;;;;;;;;;;0.41;100.00;100448.50;10468761;28;20264;-80
2023/01/19 14:23:36;;;;;;;;;;;;;;;0.26;100.00;100461.91;10477359;28;20342;-80
2023/01/19 14:28:46;;;;;;;;;;;;;;;0.21;100.00;100465.78;10485271;28;19977;-80
2023/01/19 14:33:47;;;;;;;;;;;;;;;-0.02;100.00;100462.19;10466979;28;19927;-79
2023/01/19 14:38:48;;;;;;;;;;;;;;;-0.11;100.00;100465.69;10483642;28;19973;-80
2023/01/19 14:43:49;;;;;;;;;;;;;;;-0.16;100.00;100462.72;10523906;28;20516;-80
2023/01/19 14:48:50;;;;;;;;;;;;;;;0.10;100.00;100477.78;10508188;28;19919;-79
2023/01/19 14:53:51;;;;;;;;;;;;;;;0.11;100.00;100478.66;10506819;28;19927;-79
2023/01/19 14:58:51;;;;;;;;;;;;;;;0.03;100.00;100472.88;10507423;28;19922;-80
2023/01/19 15:03:52;;;;;;;;;;;;;;;0.13;100.00;100485.75;10525420;28;19920;-80
2023/01/19 15:08:52;;;;;;;;;;;;;;;0.15;100.00;100485.84;10506582;28;19920;-80
2023/01/19 15:13:54;;;;;;;;;;;;;;;-0.03;100.00;100495.53;10523449;28;19930;-79
2023/01/19 15:18:54;;;;;;;;;;;;;;;-0.27;100.00;100486.63;10524199;28;19920;-80
2023/01/19 15:23:55;;;;;;;;;;;;;;;-0.58;100.00;100495.22;10508583;28;19925;-80
2023/01/19 15:28:55;;;;;;;;;;;;;;;-0.66;100.00;100498.78;10465720;28;19944;-80
2023/01/19 15:33:55;;;;;;;;;;;;;;;-0.99;100.00;100502.78;10474444;28;19924;-79
2023/01/19 15:38:56;;;;;;;;;;;;;;;-1.27;100.00;100508.94;10487392;28;19928;-79
2023/01/19 15:43:56;;;;;;;;;;;;;;;-1.43;100.00;100518.59;10465234;28;19951;-80
2023/01/19 15:48:56;;;;;;;;;;;;;;;-1.62;100.00;100519.50;10485074;28;20360;-80
2023/01/19 15:53:57;;;;;;;;;;;;;;;-1.67;100.00;100518.19;10473606;28;19928;-81
2023/01/19 15:58:57;;;;;;;;;;;;;;;-1.72;100.00;100520.38;10523209;28;19920;-80
2023/01/19 16:03:59;;;;;;;;;;;;;;;-1.71;100.00;100524.72;10464341;28;20336;-79
2023/01/19 16:09:00;;;;;;;;;;;;;;;-1.79;100.00;100529.16;10446744;28;19969;-82
2023/01/19 16:14:00;;;;;;;;;;;;;;;-2.03;100.00;100534.59;10480600;28;19920;-80
2023/01/19 16:19:00;;;;;;;;;;;;;;;-2.19;100.00;100542.53;10447593;28;19928;-81
2023/01/19 16:24:01;;;;;;;;;;;;;;;-2.15;100.00;100547.19;10454418;28;19925;-78
2023/01/19 16:29:07;;;;;;;;;;;;;;;-2.20;100.00;100546.75;10468158;28;19924;-78
2023/01/19 16:34:07;;;;;;;;;;;;;;;-2.15;100.00;100548.06;10473410;28;20304;-78
2023/01/19 16:39:09;;;;;;;;;;;;;;;-2.22;100.00;100554.31;10501512;28;19920;-78
2023/01/19 16:44:10;;;;;;;;;;;;;;;-2.26;100.00;100561.56;10508105;28;19924;-78
2023/01/19 16:49:11;;;;;;;;;;;;;;;-2.33;100.00;100556.63;10469195;28;19923;-79
2023/01/19 16:54:12;;;;;;;;;;;;;;;-2.45;100.00;100569.19;10470555;28;19916;-79
2023/01/19 16:59:13;;;;;;;;;;;;;;;-2.53;100.00;100576.13;10469707;28;20237;-79
2023/01/19 17:04:14;;;;;;;;;;;;;;;-2.60;100.00;100568.63;10470368;28;19923;-78
2023/01/19 17:09:15;;;;;;;;;;;;;;;-2.57;100.00;100574.97;10503778;28;20444;-79
2023/01/19 17:14:16;;;;;;;;;;;;;;;-2.58;100.00;100585.06;10528541;28;19980;-79
2023/01/19 17:19:17;;;;;;;;;;;;;;;-2.56;100.00;100591.22;10526515;28;20375;-78
2023/01/19 17:24:17;;;;;;;;;;;;;;;-2.59;100.00;100586.72;10469013;28;19962;-79
2023/01/19 17:29:18;;;;;;;;;;;;;;;-2.73;100.00;100587.06;10496877;28;19970;-79
2023/01/19 17:34:18;;;;;;;;;;;;;;;-2.74;100.00;100583.59;10497156;28;19924;-79
2023/01/19 17:39:18;;;;;;;;;;;;;;;-2.70;100.00;100590.81;10526064;28;20027;-78
2023/01/19 17:44:19;;;;;;;;;;;;;;;-2.62;100.00;100593.19;10467217;28;19959;-78
2023/01/19 17:49:19;;;;;;;;;;;;;;;-2.65;100.00;100601.50;10468501;28;19924;-78
2023/01/19 17:54:19;;;;;;;;;;;;;;;-2.71;100.00;100608.63;10505802;28;20329;-79
2023/01/19 17:59:20;;;;;;;;;;;;;;;-2.67;100.00;100611.59;10500338;28;19927;-79
2023/01/19 18:04:20;;;;;;;;;;;;;;;-2.56;100.00;100601.47;10469488;28;19925;-78
2023/01/19 18:09:20;;;;;;;;;;;;;;;-2.53;100.00;100597.56;10484688;28;20405;-79
2023/01/19 18:14:21;;;;;;;;;;;;;;;-2.45;100.00;100599.94;10492525;28;19927;-79
2023/01/19 18:19:21;;;;;;;;;;;;;;;-2.50;100.00;100602.06;10523524;28;19927;-77
2023/01/19 18:24:22;;;;;;;;;;;;;;;-2.52;100.00;100613.81;10481293;28;19924;-81
2023/01/19 18:29:22;;;;;;;;;;;;;;;-2.57;100.00;100610.84;10467033;28;19924;-77
2023/01/19 18:34:22;;;;;;;;;;;;;;;-2.63;100.00;100615.38;10492945;28;20393;-83
2023/01/19 18:39:23;;;;;;;;;;;;;;;-2.71;100.00;100617.19;10527160;28;20008;-78
2023/01/19 18:44:23;;;;;;;;;;;;;;;-2.81;100.00;100611.94;10510425;28;19959;-79
2023/01/19 18:49:23;;;;;;;;;;;;;;;-2.86;100.00;100611.50;10525263;28;19927;-79
2023/01/19 18:54:24;;;;;;;;;;;;;;;-2.95;100.00;100619.19;10500652;28;19921;-81
2023/01/19 18:59:24;;;;;;;;;;;;;;;-2.91;100.00;100616.91;10450000;28;19938;-79
2023/01/19 19:04:24;;;;;;;;;;;;;;;-2.96;100.00;100617.38;10510290;28;20078;-80
2023/01/19 19:09:25;;;;;;;;;;;;;;;-3.08;100.00;100631.53;10524429;28;19920;-81
2023/01/19 19:14:25;;;;;;;;;;;;;;;-3.23;100.00;100627.47;10496993;28;19925;-79
2023/01/19 19:19:26;;;;;;;;;;;;;;;-3.40;100.00;100624.16;10497201;28;19919;-77
2023/01/19 19:24:26;;;;;;;;;;;;;;;-3.45;100.00;100635.59;10477533;28;19974;-77
2023/01/19 19:29:27;;;;;;;;;;;;;;;-3.17;100.00;100640.88;10504749;28;19938;-78
2023/01/19 19:34:28;;;;;;;;;;;;;;;-2.86;100.00;100644.81;10524340;28;19916;-78
2023/01/19 19:39:28;;;;;;;;;;;;;;;-2.88;100.00;100635.13;10482253;28;19969;-78
2023/01/19 19:44:28;;;;;;;;;;;;;;;-2.84;100.00;100640.72;10481797;28;19943;-79
2023/01/19 19:49:29;;;;;;;;;;;;;;;-2.87;100.00;100634.38;10504670;28;19927;-78
2023/01/19 19:54:29;;;;;;;;;;;;;;;-2.98;100.00;100646.16;10497202;28;20355;-78
2023/01/19 19:59:29;;;;;;;;;;;;;;;-3.00;100.00;100651.13;10524560;28;19927;-78
2023/01/19 20:04:30;;;;;;;;;;;;;;;-3.06;100.00;100663.31;10495698;28;19924;-78
2023/01/19 20:09:31;;;;;;;;;;;;;;;-3.16;100.00;100666.66;10526074;28;19916;-78
2023/01/19 20:14:31;;;;;;;;;;;;;;;-3.27;100.00;100672.34;10456997;28;20387;-78
2023/01/19 20:19:32;;;;;;;;;;;;;;;-3.22;100.00;100673.72;10491121;28;19916;-79
2023/01/19 20:24:32;;;;;;;;;;;;;;;-3.33;100.00;100677.75;10504823;28;19920;-78
2023/01/19 20:29:33;;;;;;;;;;;;;;;-3.37;100.00;100685.00;10529897;28;20273;-78
2023/01/19 20:34:34;;;;;;;;;;;;;;;-3.32;100.00;100691.47;10501590;28;20061;-78
2023/01/19 20:39:35;;;;;;;;;;;;;;;-3.27;100.00;100693.72;10490342;28;20009;-78
2023/01/19 20:44:36;;;;;;;;;;;;;;;-3.22;100.00;100696.75;10527744;28;19959;-79
2023/01/19 20:49:36;;;;;;;;;;;;;;;-3.22;100.00;100717.25;10531809;28;20050;-79
2023/01/19 20:54:38;;;;;;;;;;;;;;;-3.33;100.00;100726.38;10486164;28;19943;-78
2023/01/19 20:59:39;;;;;;;;;;;;;;;-3.42;100.00;100738.25;10495053;28;19974;-82
2023/01/19 21:04:41;;;;;;;;;;;;;;;-3.55;100.00;100748.91;10488673;28;19976;-78
2023/01/19 21:09:41;;;;;;;;;;;;;;;-3.22;100.00;100747.97;10495421;28;19980;-78
2023/01/19 21:14:44;;;;;;;;;;;;;;;-3.11;100.00;100754.13;10505991;28;19932;-79
2023/01/19 21:19:44;;;;;;;;;;;;;;;-3.06;100.00;100767.41;10487806;28;19927;-79
2023/01/19 21:24:45;;;;;;;;;;;;;;;-3.02;100.00;100766.97;10478030;28;19927;-79
2023/01/19 21:29:46;;;;;;;;;;;;;;;-3.17;100.00;100774.00;10530474;28;20007;-78
2023/01/19 21:34:46;;;;;;;;;;;;;;;-3.13;100.00;100777.03;10504137;28;19920;-79
2023/01/19 21:39:47;;;;;;;;;;;;;;;-3.35;100.00;100781.63;10469662;28;19925;-78
2023/01/19 21:44:47;;;;;;;;;;;;;;;-3.34;100.00;100796.25;10476268;28;19924;-78
2023/01/19 21:49:48;;;;;;;;;;;;;;;-3.40;100.00;100801.66;10496339;28;19916;-78
2023/01/19 21:54:48;;;;;;;;;;;;;;;-3.24;100.00;100800.66;10520113;28;19936;-78
2023/01/19 21:59:48;;;;;;;;;;;;;;;-3.28;100.00;100801.97;10469835;28;19928;-78
2023/01/19 22:04:49;;;;;;;;;;;;;;;-3.38;100.00;100818.81;10479716;28;19924;-78
2023/01/19 22:09:49;;;;;;;;;;;;;;;-3.43;100.00;100813.22;10490841;28;20006;-79
2023/01/19 22:14:49;;;;;;;;;;;;;;;-3.29;100.00;100815.53;10520073;28;19931;-78
2023/01/19 22:19:50;;;;;;;;;;;;;;;-3.16;100.00;100816.78;10491267;28;19920;-78
2023/01/19 22:24:50;;;;;;;;;;;;;;;-3.05;100.00;100823.91;10488997;28;20010;-78
2023/01/19 22:29:50;;;;;;;;;;;;;;;-2.91;100.00;100822.75;10504899;28;20371;-77
2023/01/19 22:34:51;;;;;;;;;;;;;;;-2.83;100.00;100826.06;10492665;28;19927;-78
2023/01/19 22:39:51;;;;;;;;;;;;;;;-2.78;100.00;100840.22;10495047;28;19927;-78
2023/01/19 22:44:52;;;;;;;;;;;;;;;-2.67;100.00;100843.88;10500423;28;19924;-78
2023/01/19 22:49:52;;;;;;;;;;;;;;;-2.57;100.00;100838.91;10502413;28;19919;-78
2023/01/19 22:54:55;;;;;;;;;;;;;;;-2.53;100.00;100855.50;10523658;28;19924;-78
2023/01/19 22:59:55;;;;;;;;;;;;;;;-2.43;100.00;100858.22;10526145;28;20412;-79
2023/01/19 23:04:55;;;;;;;;;;;;;;;-2.43;100.00;100854.75;10514431;28;19920;-78
2023/01/19 23:09:56;;;;;;;;;;;;;;;-2.20;100.00;100861.25;10521126;28;19928;-79
2023/01/19 23:14:56;;;;;;;;;;;;;;;-2.13;100.00;100853.41;10508489;28;19970;-78
2023/01/19 23:19:56;;;;;;;;;;;;;;;-2.08;100.00;100863.34;10523647;28;19920;-78
2023/01/19 23:24:57;;;;;;;;;;;;;;;-2.02;100.00;100860.50;10507670;28;19923;-78
2023/01/19 23:29:57;;;;;;;;;;;;;;;-1.99;100.00;100859.88;10504371;28;19920;-79
2023/01/19 23:34:58;;;;;;;;;;;;;;;-1.92;100.00;100859.72;10491040;28;20430;-79
2023/01/19 23:39:58;;;;;;;;;;;;;;;-1.86;100.00;100859.44;10498068;28;19973;-79
2023/01/19 23:44:58;;;;;;;;;;;;;;;-1.87;100.00;100863.63;10524435;28;19920;-78
2023/01/19 23:49:59;;;;;;;;;;;;;;;-1.83;100.00;100865.75;10503428;28;19928;-78
2023/01/19 23:54:59;;;;;;;;;;;;;;;-1.80;100.00;100871.19;10506799;28;20446;-78
2023/01/19 23:59:59;;;;;;;;;;;;;;;-1.75;100.00;100873.28;10480348;28;20018;-79
